createdAt,value
2019-03-28T00:02:01.142Z,76.20
2019-03-28T00:04:27.246Z,76.18
2019-03-28T00:06:53.477Z,76.32
2019-03-28T00:09:19.884Z,76.49
2019-03-28T00:11:46.217Z,76.42
2019-03-28T00:14:12.574Z,76.46
2019-03-28T00:16:38.766Z,76.66
2019-03-28T00:19:05.135Z,76.59
2019-03-28T00:21:31.351Z,76.53
2019-03-28T00:23:59.372Z,76.45
2019-03-28T00:26:30.393Z,76.48
2019-03-28T00:28:53.631Z,76.55
2019-03-28T00:31:21.405Z,76.57
2019-03-28T00:33:47.847Z,76.71
2019-03-28T00:36:13.997Z,76.76
2019-03-28T00:38:40.190Z,76.88
2019-03-28T00:41:06.439Z,77.03
2019-03-28T00:43:32.661Z,77.33
2019-03-28T00:45:58.795Z,77.49
2019-03-28T00:48:24.967Z,77.73
2019-03-28T00:50:51.116Z,77.95
2019-03-28T00:53:17.343Z,78.11
2019-03-28T00:55:43.527Z,78.62
2019-03-28T00:58:09.699Z,78.63
2019-03-28T01:00:36.055Z,78.89
2019-03-28T01:03:02.324Z,78.94
2019-03-28T01:05:29.589Z,79.13
2019-03-28T01:07:55.768Z,79.13
2019-03-28T01:10:22.219Z,79.40
2019-03-28T01:12:48.564Z,79.31
2019-03-28T01:15:14.732Z,79.11
2019-03-28T01:17:40.946Z,79.35
2019-03-28T01:20:07.906Z,79.49
2019-03-28T01:22:34.235Z,79.56
2019-03-28T01:25:00.437Z,79.50
2019-03-28T01:27:26.634Z,79.49
2019-03-28T01:29:52.755Z,79.37
2019-03-28T01:32:18.924Z,79.06
2019-03-28T01:34:45.147Z,79.22
2019-03-28T01:37:11.311Z,79.67
2019-03-28T01:39:37.475Z,79.81
2019-03-28T01:42:03.697Z,79.30
2019-03-28T01:44:29.790Z,79.15
2019-03-28T01:46:56.033Z,79.17
2019-03-28T01:49:22.196Z,79.10
2019-03-28T01:51:48.394Z,79.05
2019-03-28T01:54:14.532Z,79.10
2019-03-28T01:56:40.757Z,79.10
2019-03-28T01:59:06.857Z,79.29
2019-03-28T02:01:33.202Z,79.56
2019-03-28T02:03:59.302Z,79.96
2019-03-28T02:06:25.534Z,80.12
2019-03-28T02:08:51.800Z,80.37
2019-03-28T02:11:18.067Z,80.62
2019-03-28T02:13:44.374Z,80.65
2019-03-28T02:16:10.563Z,80.70
2019-03-28T02:18:36.881Z,80.87
2019-03-28T02:21:03.090Z,81.13
2019-03-28T02:23:29.250Z,81.28
2019-03-28T02:25:55.462Z,81.19
2019-03-28T02:28:21.578Z,81.75
2019-03-28T02:30:47.780Z,82.01
2019-03-28T02:33:14.902Z,81.99
2019-03-28T02:35:41.156Z,81.85
2019-03-28T02:38:07.280Z,81.97
2019-03-28T02:40:33.497Z,82.04
2019-03-28T02:42:59.617Z,82.32
2019-03-28T02:45:25.807Z,82.38
2019-03-28T02:47:52.131Z,82.46
2019-03-28T02:50:18.306Z,82.51
2019-03-28T02:52:44.459Z,82.66
2019-03-28T02:55:10.817Z,82.78
2019-03-28T02:57:41.635Z,83.04
2019-03-28T03:00:06.076Z,83.02
2019-03-28T03:02:32.902Z,83.39
2019-03-28T03:04:59.039Z,83.35
2019-03-28T03:07:25.351Z,83.40
2019-03-28T03:09:51.592Z,83.35
2019-03-28T03:12:17.993Z,83.45
2019-03-28T03:14:44.090Z,83.38
2019-03-28T03:17:10.342Z,83.52
2019-03-28T03:19:36.435Z,83.66
2019-03-28T03:22:03.124Z,83.97
2019-03-28T03:24:29.365Z,83.97
2019-03-28T03:26:55.597Z,84.13
2019-03-28T03:29:21.697Z,84.23
2019-03-28T03:31:47.904Z,84.28
2019-03-28T03:34:14.020Z,84.45
2019-03-28T03:36:40.246Z,84.35
2019-03-28T03:39:07.271Z,84.35
2019-03-28T03:41:33.592Z,84.39
2019-03-28T03:43:59.758Z,84.45
2019-03-28T03:46:25.922Z,84.38
2019-03-28T03:48:52.068Z,84.45
2019-03-28T03:51:18.318Z,84.51
2019-03-28T03:53:44.411Z,84.53
2019-03-28T03:56:10.661Z,84.62
2019-03-28T03:58:36.844Z,84.70
2019-03-28T04:01:03.089Z,84.85
2019-03-28T04:03:29.650Z,84.83
2019-03-28T04:05:56.206Z,84.90
2019-03-28T04:08:22.501Z,84.88
2019-03-28T04:10:48.654Z,84.87
2019-03-28T04:13:14.884Z,84.89
2019-03-28T04:15:41.183Z,85.00
2019-03-28T04:18:07.364Z,85.02
2019-03-28T04:20:33.529Z,85.05
2019-03-28T04:22:59.786Z,85.03
2019-03-28T04:25:25.895Z,85.04
2019-03-28T04:27:52.113Z,85.13
2019-03-28T04:30:18.477Z,85.26
2019-03-28T04:32:44.728Z,85.25
2019-03-28T04:35:10.982Z,85.31
2019-03-28T04:37:37.164Z,85.34
2019-03-28T04:40:05.862Z,85.59
2019-03-28T04:42:32.055Z,85.51
2019-03-28T04:44:58.235Z,85.60
2019-03-28T04:47:24.390Z,85.37
2019-03-28T04:49:50.735Z,85.52
2019-03-28T04:52:16.928Z,85.41
2019-03-28T04:54:43.219Z,85.52
2019-03-28T04:57:09.414Z,85.58
2019-03-28T04:59:35.778Z,85.71
2019-03-28T05:02:03.743Z,85.82
2019-03-28T05:04:30.284Z,85.87
2019-03-28T05:06:56.539Z,85.86
2019-03-28T05:09:23.366Z,85.85
2019-03-28T05:11:49.854Z,85.93
2019-03-28T05:14:16.117Z,85.96
2019-03-28T05:16:42.393Z,86.18
2019-03-28T05:19:08.661Z,86.40
2019-03-28T05:21:34.810Z,86.42
2019-03-28T05:24:01.053Z,86.33
2019-03-28T05:26:27.212Z,86.40
2019-03-28T05:28:57.868Z,86.46
2019-03-28T05:31:21.640Z,86.56
2019-03-28T05:33:47.828Z,86.49
2019-03-28T05:36:13.993Z,86.54
2019-03-28T05:38:40.224Z,86.47
2019-03-28T05:41:06.414Z,86.48
2019-03-28T05:43:32.856Z,86.52
2019-03-28T05:46:00.146Z,86.61
2019-03-28T05:48:26.311Z,86.58
2019-03-28T05:50:52.617Z,86.67
2019-03-28T05:53:18.810Z,86.71
2019-03-28T05:55:45.081Z,86.78
2019-03-28T05:58:11.282Z,86.85
2019-03-28T06:00:39.033Z,86.92
2019-03-28T06:03:07.521Z,87.05
2019-03-28T06:05:33.678Z,87.21
2019-03-28T06:07:59.847Z,87.33
2019-03-28T06:10:26.001Z,87.33
2019-03-28T06:12:52.234Z,87.40
2019-03-28T06:15:18.340Z,87.55
2019-03-28T06:17:44.693Z,87.59
2019-03-28T06:20:11.296Z,87.57
2019-03-28T06:22:37.621Z,87.65
2019-03-28T06:25:05.875Z,87.70
2019-03-28T06:27:32.175Z,87.69
2019-03-28T06:29:58.345Z,87.75
2019-03-28T06:32:24.547Z,87.73
2019-03-28T06:34:50.692Z,87.84
2019-03-28T06:37:16.868Z,87.83
2019-03-28T06:39:43.030Z,87.92
2019-03-28T06:42:09.204Z,87.97
2019-03-28T06:44:35.385Z,88.07
2019-03-28T06:47:01.578Z,88.12
2019-03-28T06:49:27.786Z,88.09
2019-03-28T06:51:54.034Z,88.15
2019-03-28T06:54:20.174Z,88.24
2019-03-28T06:56:46.367Z,88.27
2019-03-28T06:59:13.522Z,88.35
2019-03-28T07:01:39.699Z,88.39
2019-03-28T07:04:05.865Z,88.43
2019-03-28T07:06:32.093Z,88.44
2019-03-28T07:08:58.453Z,88.48
2019-03-28T07:11:24.662Z,88.56
2019-03-28T07:13:50.775Z,88.62
2019-03-28T07:16:16.998Z,88.72
2019-03-28T07:18:43.094Z,88.76
2019-03-28T07:21:09.299Z,88.85
2019-03-28T07:23:35.406Z,88.85
2019-03-28T07:26:01.621Z,88.83
2019-03-28T07:28:27.775Z,88.87
2019-03-28T07:30:53.952Z,88.88
2019-03-28T07:33:20.303Z,88.88
2019-03-28T07:35:46.456Z,89.01
2019-03-28T07:38:12.722Z,88.96
2019-03-28T07:40:38.998Z,89.06
2019-03-28T07:43:05.161Z,89.04
2019-03-28T07:45:34.331Z,89.08
2019-03-28T07:47:59.471Z,89.08
2019-03-28T07:50:25.758Z,89.07
2019-03-28T07:52:52.083Z,89.02
2019-03-28T07:55:18.312Z,89.00
2019-03-28T07:57:44.577Z,89.09
2019-03-28T08:00:14.200Z,89.08
2019-03-28T08:02:40.517Z,89.00
2019-03-28T08:05:08.766Z,89.02
2019-03-28T08:07:44.864Z,89.01
2019-03-28T08:10:06.341Z,89.00
2019-03-28T08:12:32.726Z,89.03
2019-03-28T08:14:58.884Z,89.07
2019-03-28T08:17:25.076Z,89.06
2019-03-28T08:19:51.270Z,89.04
2019-03-28T08:22:17.436Z,88.98
2019-03-28T08:24:43.597Z,88.93
2019-03-28T08:27:09.752Z,88.98
2019-03-28T08:29:35.929Z,89.09
2019-03-28T08:32:04.107Z,88.98
2019-03-28T08:34:31.395Z,88.93
2019-03-28T08:36:59.023Z,88.85
2019-03-28T08:39:26.098Z,88.79
2019-03-28T08:41:52.256Z,88.74
2019-03-28T08:44:22.473Z,88.73
2019-03-28T08:46:47.671Z,88.64
2019-03-28T08:49:13.963Z,88.79
2019-03-28T08:51:40.167Z,88.80
2019-03-28T08:54:06.378Z,88.63
2019-03-28T08:56:32.794Z,88.72
2019-03-28T08:58:59.020Z,88.57
2019-03-28T09:01:25.473Z,88.49
2019-03-28T09:03:51.689Z,88.50
2019-03-28T09:06:17.852Z,88.63
2019-03-28T09:08:44.066Z,88.48
2019-03-28T09:11:10.333Z,88.54
2019-03-28T09:13:36.498Z,88.62
2019-03-28T09:16:02.967Z,88.62
2019-03-28T09:18:29.138Z,88.57
2019-03-28T09:20:55.516Z,88.62
2019-03-28T09:23:21.695Z,88.64
2019-03-28T09:25:47.879Z,88.51
2019-03-28T09:28:14.112Z,88.52
2019-03-28T09:30:48.772Z,88.40
2019-03-28T09:33:09.925Z,88.60
2019-03-28T09:35:36.275Z,88.63
2019-03-28T09:38:03.056Z,88.54
2019-03-28T09:40:29.159Z,88.39
2019-03-28T09:42:55.479Z,88.50
2019-03-28T09:45:21.660Z,88.37
2019-03-28T09:47:47.834Z,88.32
2019-03-28T09:50:14.087Z,88.26
2019-03-28T09:52:40.253Z,88.13
2019-03-28T09:55:06.679Z,88.16
2019-03-28T09:57:33.122Z,88.33
2019-03-28T09:59:59.358Z,88.38
2019-03-28T10:02:25.517Z,88.47
2019-03-28T10:04:51.722Z,88.45
2019-03-28T10:07:19.019Z,88.17
2019-03-28T10:09:45.640Z,88.20
2019-03-28T10:12:11.854Z,88.10
2019-03-28T10:14:38.052Z,87.96
2019-03-28T10:17:04.159Z,87.91
2019-03-28T10:19:31.458Z,87.99
2019-03-28T10:21:57.637Z,87.94
2019-03-28T10:24:23.849Z,87.95
2019-03-28T10:26:50.025Z,88.07
2019-03-28T10:29:16.308Z,87.89
2019-03-28T10:31:42.691Z,88.17
2019-03-28T10:34:08.919Z,88.10
2019-03-28T10:36:35.129Z,88.06
2019-03-28T10:39:01.384Z,87.93
2019-03-28T10:41:29.540Z,87.98
2019-03-28T10:43:55.752Z,87.85
2019-03-28T10:46:22.011Z,87.89
2019-03-28T10:48:48.225Z,87.73
2019-03-28T10:51:14.441Z,87.67
2019-03-28T10:53:40.679Z,87.55
2019-03-28T10:56:20.501Z,87.64
2019-03-28T10:58:35.321Z,87.59
2019-03-28T11:01:01.612Z,87.53
2019-03-28T11:03:27.875Z,87.46
2019-03-28T11:05:54.092Z,87.22
2019-03-28T11:08:20.191Z,87.12
2019-03-28T11:10:46.396Z,87.15
2019-03-28T11:13:12.606Z,87.28
2019-03-28T11:15:38.841Z,87.12
2019-03-28T11:18:06.113Z,87.24
2019-03-28T11:20:33.508Z,87.13
2019-03-28T11:23:02.205Z,87.10
2019-03-28T11:25:27.837Z,87.37
2019-03-28T11:27:53.994Z,87.28
2019-03-28T11:30:20.456Z,87.34
2019-03-28T11:32:46.556Z,87.20
2019-03-28T11:35:13.017Z,87.09
2019-03-28T11:37:39.228Z,87.01
2019-03-28T11:40:09.200Z,86.96
2019-03-28T11:42:34.898Z,87.11
2019-03-28T11:45:01.341Z,87.07
2019-03-28T11:47:28.903Z,87.07
2019-03-28T11:49:55.854Z,86.98
2019-03-28T11:52:22.234Z,87.01
2019-03-28T11:54:48.458Z,87.10
2019-03-28T11:57:15.970Z,87.28
2019-03-28T11:59:42.424Z,87.12
2019-03-28T12:02:19.561Z,87.06
2019-03-28T12:04:38.831Z,87.21
2019-03-28T12:07:05.050Z,87.42
2019-03-28T12:09:31.348Z,87.61
2019-03-28T12:11:57.510Z,87.63
2019-03-28T12:14:23.730Z,87.75
2019-03-28T12:16:49.888Z,87.65
2019-03-28T12:19:17.735Z,87.69
2019-03-28T12:21:44.722Z,87.58
2019-03-28T12:24:10.882Z,87.60
2019-03-28T12:26:37.106Z,87.67
2019-03-28T12:29:05.785Z,87.50
2019-03-28T12:31:33.247Z,87.69
2019-03-28T12:33:59.491Z,87.69
2019-03-28T12:36:25.695Z,87.79
2019-03-28T12:38:51.873Z,87.94
2019-03-28T12:41:18.112Z,87.86
2019-03-28T12:43:44.345Z,87.81
2019-03-28T12:46:10.546Z,87.90
2019-03-28T12:48:36.736Z,87.93
2019-03-28T12:51:02.931Z,88.00
2019-03-28T12:53:29.146Z,88.08
2019-03-28T12:55:55.255Z,88.15
2019-03-28T12:58:22.423Z,88.27
2019-03-28T13:00:48.654Z,88.38
2019-03-28T13:03:14.846Z,88.38
2019-03-28T13:05:41.059Z,88.43
2019-03-28T13:08:07.371Z,88.33
2019-03-28T13:10:33.774Z,88.35
2019-03-28T13:12:59.993Z,88.37
2019-03-28T13:15:26.101Z,88.45
2019-03-28T13:17:52.303Z,88.38
2019-03-28T13:20:21.951Z,88.31
2019-03-28T13:22:46.629Z,88.37
2019-03-28T13:25:12.959Z,88.22
2019-03-28T13:27:39.095Z,88.26
2019-03-28T13:30:10.486Z,88.27
2019-03-28T13:32:42.222Z,88.30
2019-03-28T13:35:06.850Z,88.35
2019-03-28T13:37:33.962Z,88.43
2019-03-28T13:40:00.353Z,88.50
2019-03-28T13:42:26.411Z,88.45
2019-03-28T13:44:52.594Z,88.46
2019-03-28T13:47:18.770Z,88.40
2019-03-28T13:49:44.904Z,88.46
2019-03-28T13:52:11.062Z,88.53
2019-03-28T13:54:37.289Z,88.48
2019-03-28T13:57:03.517Z,88.57
2019-03-28T13:59:29.634Z,88.56
2019-03-28T14:01:55.824Z,88.56
2019-03-28T14:04:21.971Z,88.62
2019-03-28T14:06:48.210Z,88.63
2019-03-28T14:09:14.467Z,88.59
2019-03-28T14:11:40.754Z,88.67
2019-03-28T14:14:07.033Z,88.62
2019-03-28T14:16:33.590Z,88.53
2019-03-28T14:18:59.868Z,88.53
2019-03-28T14:21:26.075Z,88.58
2019-03-28T14:23:52.242Z,88.57
2019-03-28T14:26:18.490Z,88.52
2019-03-28T14:28:44.739Z,88.47
2019-03-28T14:31:10.955Z,88.63
2019-03-28T14:33:37.261Z,88.77
2019-03-28T14:36:03.359Z,88.71
2019-03-28T14:38:31.675Z,88.72
2019-03-28T14:40:58.456Z,88.83
2019-03-28T14:43:25.912Z,88.86
2019-03-28T14:45:52.190Z,88.93
2019-03-28T14:48:18.341Z,88.90
2019-03-28T14:50:44.678Z,89.00
2019-03-28T14:53:10.867Z,89.08
2019-03-28T14:55:38.353Z,89.12
2019-03-28T14:58:04.845Z,89.09
2019-03-28T15:00:47.116Z,89.08
2019-03-28T15:03:25.734Z,89.04
2019-03-28T15:05:44.148Z,89.13
2019-03-28T15:08:10.385Z,89.19
2019-03-28T15:10:36.619Z,89.24
2019-03-28T15:13:02.774Z,89.20
2019-03-28T15:15:29.042Z,89.27
2019-03-28T15:17:55.196Z,89.31
2019-03-28T15:20:21.524Z,89.30
2019-03-28T15:22:47.671Z,89.32
2019-03-28T15:25:14.017Z,89.37
2019-03-28T15:27:40.232Z,89.33
2019-03-28T15:30:07.719Z,89.32
2019-03-28T15:32:34.037Z,89.37
2019-03-28T15:35:00.327Z,89.46
2019-03-28T15:37:26.775Z,89.59
2019-03-28T15:39:52.942Z,89.55
2019-03-28T15:42:19.243Z,89.58
2019-03-28T15:44:45.620Z,89.63
2019-03-28T15:47:11.939Z,89.58
2019-03-28T15:49:38.211Z,89.57
2019-03-28T15:52:05.099Z,89.68
2019-03-28T15:54:31.615Z,89.63
2019-03-28T15:56:58.709Z,89.63
2019-03-28T15:59:25.083Z,89.70
2019-03-28T16:01:51.294Z,89.78
2019-03-28T16:04:17.569Z,89.80
2019-03-28T16:06:43.719Z,89.81
2019-03-28T16:09:09.956Z,89.85
2019-03-28T16:11:36.038Z,89.81
2019-03-28T16:14:02.271Z,89.79
2019-03-28T16:16:28.599Z,89.80
2019-03-28T16:18:55.160Z,89.80
2019-03-28T16:21:21.295Z,89.92
2019-03-28T16:23:47.468Z,90.03
2019-03-28T16:26:13.600Z,89.90
2019-03-28T16:28:40.794Z,89.85
2019-03-28T16:31:07.038Z,89.90
2019-03-28T16:33:33.446Z,89.92
2019-03-28T16:35:59.586Z,89.99
2019-03-28T16:38:25.801Z,90.02
2019-03-28T16:40:51.969Z,89.97
2019-03-28T16:43:18.162Z,90.01
2019-03-28T16:45:44.307Z,90.02
2019-03-28T16:48:10.462Z,90.03
2019-03-28T16:50:36.656Z,90.00
2019-03-28T16:53:03.022Z,90.04
2019-03-28T16:55:29.206Z,90.10
2019-03-28T16:57:55.484Z,90.13
2019-03-28T17:00:25.457Z,90.13
2019-03-28T17:02:51.726Z,90.17
2019-03-28T17:05:17.894Z,90.23
2019-03-28T17:07:44.311Z,90.29
2019-03-28T17:10:33.313Z,90.33
2019-03-28T17:12:59.593Z,90.36
2019-03-28T17:15:25.952Z,90.32
2019-03-28T17:17:53.382Z,90.37
2019-03-28T17:20:20.514Z,90.41
2019-03-28T17:22:46.836Z,90.49
2019-03-28T17:25:14.146Z,90.45
2019-03-28T17:27:40.507Z,90.54
2019-03-28T17:30:07.440Z,90.50
2019-03-28T17:32:38.793Z,90.51
2019-03-28T17:35:05.405Z,90.50
2019-03-28T17:37:31.821Z,90.54
2019-03-28T17:39:57.981Z,90.60
2019-03-28T17:42:24.245Z,90.65
2019-03-28T17:44:50.509Z,90.65
2019-03-28T17:47:16.724Z,90.65
2019-03-28T17:49:42.934Z,90.58
2019-03-28T17:52:09.299Z,90.58
2019-03-28T17:54:35.503Z,90.54
2019-03-28T17:57:01.761Z,90.50
2019-03-28T17:59:27.959Z,90.53
2019-03-28T18:01:54.199Z,90.56
2019-03-28T18:04:23.201Z,90.54
2019-03-28T18:06:49.227Z,90.50
2019-03-28T18:09:15.445Z,90.47
2019-03-28T18:11:41.776Z,90.48
2019-03-28T18:14:08.169Z,90.50
2019-03-28T18:16:34.422Z,90.54
2019-03-28T18:19:00.825Z,90.56
2019-03-28T18:21:26.939Z,90.54
2019-03-28T18:23:53.275Z,90.56
2019-03-28T18:26:19.427Z,90.57
2019-03-28T18:28:45.637Z,90.58
2019-03-28T18:31:12.828Z,90.59
2019-03-28T18:33:39.060Z,90.59
2019-03-28T18:36:05.285Z,90.59
2019-03-28T18:38:31.496Z,90.60
2019-03-28T18:40:57.606Z,90.59
2019-03-28T18:43:24.001Z,90.58
2019-03-28T18:45:50.153Z,90.50
2019-03-28T18:48:28.164Z,90.55
2019-03-28T18:50:45.554Z,90.54
2019-03-28T18:53:11.880Z,90.47
2019-03-28T18:55:38.275Z,90.46
2019-03-28T18:58:05.625Z,90.42
2019-03-28T19:00:32.973Z,90.42
2019-03-28T19:03:01.990Z,90.39
2019-03-28T19:05:29.074Z,90.28
2019-03-28T19:07:55.357Z,90.29
2019-03-28T19:10:21.566Z,90.25
2019-03-28T19:12:47.938Z,90.26
2019-03-28T19:15:14.486Z,90.26
2019-03-28T19:17:40.722Z,90.23
2019-03-28T19:20:08.212Z,90.18
2019-03-28T19:22:35.688Z,90.14
2019-03-28T19:25:04.287Z,90.15
2019-03-28T19:27:30.476Z,90.12
2019-03-28T19:29:56.629Z,90.11
2019-03-28T19:32:22.883Z,90.08
2019-03-28T19:34:49.065Z,90.10
2019-03-28T19:37:15.596Z,90.09
2019-03-28T19:39:41.783Z,90.13
2019-03-28T19:42:08.062Z,90.12
2019-03-28T19:44:34.738Z,90.13
2019-03-28T19:47:01.039Z,90.13
2019-03-28T19:49:27.251Z,90.14
2019-03-28T19:51:53.503Z,90.13
2019-03-28T19:54:19.631Z,90.11
2019-03-28T19:56:46.697Z,90.12
2019-03-28T19:59:12.922Z,90.13
2019-03-28T20:01:39.138Z,90.11
2019-03-28T20:04:05.331Z,90.10
2019-03-28T20:06:31.638Z,90.10
2019-03-28T20:08:57.805Z,90.10
2019-03-28T20:11:24.147Z,90.11
2019-03-28T20:13:50.508Z,90.11
2019-03-28T20:16:16.946Z,90.11
2019-03-28T20:18:43.310Z,90.07
2019-03-28T20:21:09.729Z,90.04
2019-03-28T20:23:36.088Z,89.99
2019-03-28T20:26:03.862Z,89.96
2019-03-28T20:28:30.521Z,89.93
2019-03-28T20:30:56.814Z,89.94
2019-03-28T20:33:25.069Z,89.95
2019-03-28T20:36:11.801Z,89.93
2019-03-28T20:38:19.457Z,89.92
2019-03-28T20:40:46.006Z,89.90
2019-03-28T20:43:12.239Z,89.87
2019-03-28T20:45:38.548Z,89.83
2019-03-28T20:48:05.710Z,89.81
2019-03-28T20:50:32.277Z,89.84
2019-03-28T20:52:58.501Z,89.91
2019-03-28T20:55:25.549Z,89.83
2019-03-28T20:57:53.190Z,89.89
2019-03-28T21:00:40.478Z,89.91
2019-03-28T21:03:07.275Z,89.91
2019-03-28T21:05:33.733Z,89.93
2019-03-28T21:07:59.964Z,89.92
2019-03-28T21:10:26.437Z,89.92
2019-03-28T21:12:53.250Z,89.89
2019-03-28T21:15:19.834Z,89.86
2019-03-28T21:17:46.353Z,89.85
2019-03-28T21:20:12.679Z,89.82
2019-03-28T21:22:39.110Z,89.78
2019-03-28T21:25:06.574Z,89.71
2019-03-28T21:27:33.149Z,89.68
2019-03-28T21:30:00.007Z,89.71
2019-03-28T21:32:26.306Z,89.67
2019-03-28T21:34:56.167Z,89.70
2019-03-28T21:37:20.607Z,89.68
2019-03-28T21:39:46.782Z,89.67
2019-03-28T21:42:13.056Z,89.77
2019-03-28T21:44:39.308Z,89.86
2019-03-28T21:47:05.565Z,89.65
2019-03-28T21:49:31.770Z,89.69
2019-03-28T21:51:57.990Z,89.82
2019-03-28T21:54:24.893Z,89.94
2019-03-28T21:56:51.130Z,89.94
2019-03-28T21:59:17.799Z,89.84
2019-03-28T22:01:44.088Z,89.75
2019-03-28T22:04:11.217Z,89.76
2019-03-28T22:06:42.886Z,89.75
2019-03-28T22:09:05.653Z,89.70
2019-03-28T22:11:33.898Z,89.74
2019-03-28T22:14:00.706Z,89.74
2019-03-28T22:16:27.846Z,89.76
2019-03-28T22:18:54.000Z,89.76
2019-03-28T22:21:20.165Z,89.74
2019-03-28T22:23:46.840Z,89.79
2019-03-28T22:26:12.986Z,89.78
2019-03-28T22:28:39.199Z,89.75
2019-03-28T22:31:05.362Z,89.74
2019-03-28T22:33:31.575Z,89.77
2019-03-28T22:35:57.784Z,89.79
2019-03-28T22:38:23.998Z,89.80
2019-03-28T22:40:50.148Z,89.69
2019-03-28T22:43:16.351Z,89.71
2019-03-28T22:45:43.810Z,89.66
2019-03-28T22:48:11.481Z,89.52
2019-03-28T22:50:39.310Z,89.50
2019-03-28T22:53:05.521Z,89.59
2019-03-28T22:55:31.614Z,89.45
2019-03-28T22:57:57.926Z,89.49
2019-03-28T23:00:26.185Z,89.62
2019-03-28T23:02:54.878Z,89.66
2019-03-28T23:05:21.324Z,89.66
2019-03-28T23:07:47.765Z,89.53
2019-03-28T23:10:14.453Z,89.53
2019-03-28T23:12:40.710Z,89.47
2019-03-28T23:15:07.726Z,89.48
2019-03-28T23:17:33.971Z,89.38
2019-03-28T23:20:00.349Z,89.22
2019-03-28T23:22:26.603Z,89.32
2019-03-28T23:24:52.835Z,89.27
2019-03-28T23:27:19.103Z,89.32
2019-03-28T23:29:45.357Z,89.38
2019-03-28T23:32:12.992Z,89.43
2019-03-28T23:34:39.592Z,89.45
2019-03-28T23:37:05.740Z,89.27
2019-03-28T23:39:31.939Z,89.23
2019-03-28T23:41:58.034Z,89.27
2019-03-28T23:44:24.241Z,89.29
2019-03-28T23:46:50.513Z,89.22
2019-03-28T23:49:16.751Z,89.28
2019-03-28T23:51:43.019Z,89.33
2019-03-28T23:54:09.529Z,89.34
2019-03-28T23:56:36.916Z,89.44
2019-03-28T23:59:03.610Z,89.48
